Airfield :
LOGIN :

Register | Disclaimer

   EN    FR    IT 

 










Legend :    VFR   Marginal VFR   IFR   Intensive IFR   Very Intensive IFR
Visi :
Ceiling :
>= 8 km
>= 3000ft
5 to 8 km
1000 to 3000 ft
1500m to 5 km
500 to 1000 ft
800 to 1500m
200 to 500 ft
< 800m
< 200 ft
Symbols :   Thunderstorms  Fog  Heavy snow  Heavy precipitations  Wind > 20 kt
SIGMETs :     Misc.  Thunderstorms  Icing  Turbulence  Mountain Waves  Volcanic Ashes






- Airport Elevation : -13 ft
- IATA code : LEY


EHLE - Lelystad

CURRENT METAR :
  • 041055Z AUTO 22015KT 190V250 9999 FEW009 BKN010 OVC013 16/15 Q1011 TEMPO 6000 BKN008

EXPIRED METARs :
  • 041025Z AUTO 22016KT 190V250 9999 SCT009 OVC010 16/15 Q1011 TEMPO 6000 BKN008
  • 040955Z AUTO 22018G30KT 9999 FEW006 SCT008 OVC011 16/15 Q1011 TEMPO 6000 BKN008
  • 040925Z AUTO 21016KT 190V250 8000 FEW006 SCT007 BKN008 16/15 Q1011 TEMPO 6000 -DZRA BKN008
  • 040855Z AUTO 22014KT 190V250 4000 -DZ FEW005 BKN006 BKN008 16/15 Q1011 TEMPO 6000 -DZRA BKN008
  • 040825Z AUTO 21017KT 180V240 4800 -DZRA FEW009 SCT011 OVC014 16/14 Q1011 TEMPO 6000 -DZRA BKN008

TAF TAF EHLE
Valid from the 04 at 06:00 until the 05 at 12:00 UTC


040434Z 0406/0512 22015KT 9999 BKN018
TEMPO 0406/0409 7000 -DZRA BKN014
PROB30
TEMPO 0406/0409 4500 -DZ BKN008
BECMG 0409/0412 23017G27KT BKN014
TEMPO 0409/0507 4500 -DZ SCT004 BKN007
BECMG 0419/0422 23015KT
BECMG 0507/0510 23021G33KT BKN018
PROB40
TEMPO 0508/0512 6000 -DZ SCT007 BKN012



MET'MAP, your aeronautical weather chart ! - Copyright ORBIFLY December 2007 - Disclaimer

ORBIFLY MET'MAP TEAM :

Programming & Development : Alexandra Zaïnal
Concept & original design : Baudouin d'Aumeries
Assistance for programming : Marc-Olivier Méhu
Technical & hardware support : Manuel Goepfert

Contact : metmap@orbifly.com




SOURCES & CREDITS :

   NOAA